createdAt,value
2023-01-31T00:01:36.381Z,22.33
2023-01-31T00:04:05.731Z,23.17
2023-01-31T00:06:37.361Z,26.90
2023-01-31T00:09:05.996Z,16.58
2023-01-31T00:11:33.831Z,28.73
2023-01-31T00:14:03.062Z,15.70
2023-01-31T00:16:30.604Z,19.67
2023-01-31T00:18:58.164Z,14.18
2023-01-31T00:21:27.593Z,18.23
2023-01-31T00:23:57.241Z,13.60
2023-01-31T00:26:26.111Z,19.92
2023-01-31T00:28:55.263Z,18.58
2023-01-31T00:31:24.728Z,20.27
2023-01-31T00:33:53.856Z,22.52
2023-01-31T00:36:23.236Z,17.17
2023-01-31T00:38:51.735Z,30.77
2023-01-31T00:41:21.124Z,18.35
2023-01-31T00:43:48.885Z,21.77
2023-01-31T00:46:16.695Z,18.50
2023-01-31T00:48:44.448Z,35.63
2023-01-31T00:51:11.930Z,19.93
2023-01-31T00:53:39.893Z,24.13
2023-01-31T00:56:09.434Z,21.35
2023-01-31T00:58:39.469Z,22.05
2023-01-31T01:01:08.354Z,22.33
2023-01-31T01:03:37.224Z,21.65
2023-01-31T01:06:05.897Z,24.63
2023-01-31T01:08:34.614Z,23.90
2023-01-31T01:11:06.147Z,27.70
2023-01-31T01:13:34.660Z,26.65
2023-01-31T01:16:07.283Z,25.77
2023-01-31T01:18:35.523Z,27.85
2023-01-31T01:21:11.401Z,18.95
2023-01-31T01:23:39.675Z,24.10
2023-01-31T01:26:09.173Z,18.37
2023-01-31T01:28:36.668Z,24.15
2023-01-31T01:31:09.302Z,27.33
2023-01-31T01:33:37.017Z,20.92
2023-01-31T01:36:06.508Z,28.23
2023-01-31T01:38:35.390Z,32.30
2023-01-31T01:41:03.047Z,23.92
2023-01-31T01:43:41.444Z,25.63
2023-01-31T01:46:13.226Z,32.65
2023-01-31T01:48:41.372Z,24.88
2023-01-31T01:51:09.088Z,29.85
2023-01-31T01:53:40.711Z,26.85
2023-01-31T01:56:10.725Z,30.05
2023-01-31T01:58:42.786Z,26.63
2023-01-31T02:01:13.556Z,29.40
2023-01-31T02:03:42.404Z,25.95
2023-01-31T02:06:10.143Z,23.52
2023-01-31T02:08:39.417Z,26.52
2023-01-31T02:11:09.874Z,30.80
2023-01-31T02:13:38.151Z,30.83
2023-01-31T02:16:06.136Z,22.27
2023-01-31T02:18:36.002Z,25.63
2023-01-31T02:21:21.971Z,28.52
2023-01-31T02:24:13.751Z,22.70
2023-01-31T02:26:56.877Z,28.25
2023-01-31T02:29:37.347Z,33.95
2023-01-31T02:32:35.166Z,29.58
2023-01-31T02:35:10.964Z,23.90
2023-01-31T02:37:44.508Z,33.05
2023-01-31T02:40:17.933Z,26.80
2023-01-31T02:42:53.539Z,27.63
2023-01-31T02:45:23.835Z,38.60
2023-01-31T02:48:04.579Z,26.17
2023-01-31T02:50:35.544Z,31.60
2023-01-31T02:53:07.246Z,29.10
2023-01-31T02:55:55.172Z,22.20
2023-01-31T02:58:24.165Z,22.55
2023-01-31T03:00:52.060Z,26.17
2023-01-31T03:03:23.355Z,31.38
2023-01-31T03:06:14.311Z,24.60
2023-01-31T03:08:44.380Z,30.40
2023-01-31T03:11:37.673Z,29.35
2023-01-31T03:14:11.943Z,23.70
2023-01-31T03:17:02.721Z,22.98
2023-01-31T03:19:35.321Z,31.00
2023-01-31T03:22:06.295Z,30.27
2023-01-31T03:24:34.709Z,20.70
2023-01-31T03:27:03.363Z,28.10
2023-01-31T03:29:35.423Z,21.13
2023-01-31T03:32:07.327Z,25.80
2023-01-31T03:34:36.867Z,21.17
2023-01-31T03:37:09.692Z,30.48
2023-01-31T03:39:39.990Z,26.27
2023-01-31T03:42:09.344Z,21.98
2023-01-31T03:44:42.039Z,29.35
2023-01-31T03:47:14.861Z,33.05
2023-01-31T03:49:44.713Z,20.42
2023-01-31T03:52:14.216Z,15.20
2023-01-31T03:54:46.111Z,20.55
2023-01-31T03:57:17.682Z,18.17
2023-01-31T03:59:48.013Z,21.85
2023-01-31T04:02:17.805Z,22.00
2023-01-31T04:04:49.734Z,23.85
2023-01-31T04:07:17.878Z,36.97
2023-01-31T04:09:45.638Z,20.03
2023-01-31T04:12:15.359Z,30.45
2023-01-31T04:14:43.600Z,22.63
2023-01-31T04:17:11.093Z,22.08
2023-01-31T04:19:38.692Z,20.23
2023-01-31T04:22:07.657Z,19.13
2023-01-31T04:24:35.172Z,19.13
2023-01-31T04:27:02.690Z,24.67
2023-01-31T04:29:30.195Z,21.75
2023-01-31T04:31:57.919Z,27.77
2023-01-31T04:34:25.680Z,22.23
2023-01-31T04:36:53.193Z,20.38
2023-01-31T04:39:22.311Z,18.73
2023-01-31T04:41:49.898Z,18.30
2023-01-31T04:44:17.581Z,22.73
2023-01-31T04:46:46.644Z,20.85
2023-01-31T04:49:14.243Z,18.35
2023-01-31T04:51:41.987Z,22.67
2023-01-31T04:54:09.645Z,15.05
2023-01-31T04:56:38.510Z,15.20
2023-01-31T04:59:06.404Z,20.73
2023-01-31T05:01:33.947Z,22.70
2023-01-31T05:04:01.510Z,28.52
2023-01-31T05:06:29.156Z,20.50
2023-01-31T05:09:01.405Z,17.10
2023-01-31T05:11:29.050Z,24.35
2023-01-31T05:13:58.002Z,17.55
2023-01-31T05:16:25.526Z,20.48
2023-01-31T05:18:53.141Z,24.23
2023-01-31T05:21:20.742Z,23.07
2023-01-31T05:23:48.323Z,21.83
2023-01-31T05:26:15.935Z,27.02
2023-01-31T05:28:43.643Z,23.90
2023-01-31T05:31:13.205Z,30.77
2023-01-31T05:33:41.265Z,21.20
2023-01-31T05:36:09.477Z,25.63
2023-01-31T05:38:37.116Z,27.10
2023-01-31T05:41:04.799Z,23.73
2023-01-31T05:43:32.596Z,25.98
2023-01-31T05:46:00.717Z,19.15
2023-01-31T05:48:29.603Z,20.53
2023-01-31T05:50:57.114Z,23.20
2023-01-31T05:53:24.842Z,25.00
2023-01-31T05:55:53.277Z,22.83
2023-01-31T05:58:20.823Z,27.38
2023-01-31T06:00:48.343Z,20.88
2023-01-31T06:03:15.968Z,29.40
2023-01-31T06:05:44.900Z,28.25
2023-01-31T06:08:12.748Z,23.25
2023-01-31T06:10:40.338Z,28.92
2023-01-31T06:13:08.268Z,20.43
2023-01-31T06:15:37.623Z,27.17
2023-01-31T06:18:05.517Z,27.83
2023-01-31T06:20:33.135Z,27.02
2023-01-31T06:23:02.225Z,31.27
2023-01-31T06:25:29.782Z,24.05
2023-01-31T06:27:57.961Z,17.00
2023-01-31T06:30:25.603Z,25.30
2023-01-31T06:32:53.230Z,24.08
2023-01-31T06:35:21.106Z,26.45
2023-01-31T06:37:48.826Z,25.15
2023-01-31T06:40:18.133Z,22.20
2023-01-31T06:42:45.636Z,26.50
2023-01-31T06:45:13.401Z,34.35
2023-01-31T06:47:40.950Z,29.55
2023-01-31T06:50:08.981Z,19.50
2023-01-31T06:52:57.490Z,25.60
2023-01-31T06:55:26.419Z,30.20
2023-01-31T06:57:55.325Z,19.80
2023-01-31T07:00:24.752Z,32.70
2023-01-31T07:02:53.125Z,34.90
2023-01-31T07:05:21.692Z,32.63
2023-01-31T07:07:49.838Z,28.67
2023-01-31T07:10:17.839Z,31.45
2023-01-31T07:12:46.717Z,25.80
2023-01-31T07:15:14.294Z,26.58
2023-01-31T07:20:22.424Z,27.63
2023-01-31T07:22:56.761Z,35.90
2023-01-31T07:25:24.579Z,23.52
2023-01-31T07:27:53.531Z,26.88
2023-01-31T07:32:56.343Z,36.77
2023-01-31T07:35:24.164Z,23.13
2023-01-31T07:37:52.781Z,23.77
2023-01-31T07:40:20.683Z,19.00
2023-01-31T07:42:48.246Z,25.63
2023-01-31T07:45:33.484Z,32.63
2023-01-31T07:48:23.490Z,32.28
2023-01-31T07:50:51.696Z,25.20
2023-01-31T07:53:19.384Z,31.92
2023-01-31T07:55:47.854Z,23.13
2023-01-31T07:58:20.646Z,23.40
2023-01-31T08:01:07.245Z,24.95
2023-01-31T08:03:34.977Z,35.05
2023-01-31T08:06:04.199Z,26.45
2023-01-31T08:08:31.731Z,27.23
2023-01-31T08:10:59.269Z,19.70
2023-01-31T08:13:27.706Z,26.58
2023-01-31T08:15:56.599Z,23.33
2023-01-31T08:21:51.045Z,32.83
2023-01-31T08:24:18.565Z,25.52
2023-01-31T08:26:46.703Z,25.27
2023-01-31T08:29:14.433Z,16.27
2023-01-31T08:31:44.000Z,13.48
2023-01-31T08:34:11.903Z,5.77
2023-01-31T08:36:39.527Z,18.45
2023-01-31T08:39:35.340Z,1.20
2023-01-31T08:42:02.879Z,0.90
2023-01-31T08:44:30.684Z,6.93
2023-01-31T08:47:11.835Z,1.10
2023-01-31T08:49:41.648Z,3.10
2023-01-31T08:52:21.652Z,2.42
2023-01-31T08:54:49.455Z,3.00
2023-01-31T08:57:17.196Z,1.80
2023-01-31T08:59:44.912Z,1.70
2023-01-31T09:02:13.831Z,1.25
2023-01-31T09:04:41.611Z,1.70
2023-01-31T09:07:09.081Z,0.90
2023-01-31T09:09:36.626Z,2.20
2023-01-31T09:12:04.775Z,9.95
2023-01-31T09:14:32.682Z,5.70
2023-01-31T09:20:14.814Z,1.88
2023-01-31T09:22:43.217Z,0.88
2023-01-31T09:25:11.126Z,10.70
2023-01-31T09:27:39.604Z,1.00
2023-01-31T09:30:09.277Z,4.10
2023-01-31T09:32:38.702Z,0.60
2023-01-31T09:35:06.907Z,2.80
2023-01-31T09:37:35.760Z,0.50
2023-01-31T09:40:05.878Z,7.70
2023-01-31T09:42:36.584Z,0.70
2023-01-31T09:45:44.809Z,0.75
2023-01-31T09:48:17.891Z,3.15
2023-01-31T09:50:48.598Z,9.65
2023-01-31T09:53:21.739Z,15.90
2023-01-31T09:55:55.839Z,15.75
2023-01-31T09:58:29.506Z,22.10
2023-01-31T10:01:02.278Z,29.07
2023-01-31T10:04:00.383Z,22.77
2023-01-31T10:06:31.719Z,28.90
2023-01-31T10:09:04.951Z,20.10
2023-01-31T10:11:38.271Z,18.45
2023-01-31T10:14:19.036Z,22.80
2023-01-31T10:16:55.767Z,21.63
2023-01-31T10:19:25.975Z,24.23
2023-01-31T10:21:56.615Z,15.15
2023-01-31T10:24:31.604Z,18.08
2023-01-31T10:27:05.513Z,16.92
2023-01-31T10:29:47.062Z,18.33
2023-01-31T10:32:20.608Z,15.30
2023-01-31T10:37:38.376Z,15.60
2023-01-31T10:40:15.087Z,10.65
2023-01-31T10:42:44.114Z,19.25
2023-01-31T10:45:18.395Z,19.30
2023-01-31T10:47:51.263Z,22.60
2023-01-31T10:50:21.528Z,22.60
2023-01-31T10:53:02.770Z,16.75
2023-01-31T10:55:59.346Z,15.80
2023-01-31T10:58:27.099Z,16.77
2023-01-31T11:00:55.003Z,17.33
2023-01-31T11:03:22.616Z,17.48
2023-01-31T11:05:52.104Z,23.15
2023-01-31T11:08:28.094Z,19.80
2023-01-31T11:10:59.027Z,18.60
2023-01-31T11:13:26.743Z,16.33
2023-01-31T11:15:55.743Z,22.73
2023-01-31T11:18:28.648Z,11.52
2023-01-31T11:20:56.421Z,21.27
2023-01-31T11:23:25.622Z,21.08
2023-01-31T11:25:54.370Z,16.60
2023-01-31T11:28:24.948Z,16.10
2023-01-31T11:30:55.224Z,12.57
2023-01-31T11:33:45.930Z,10.38
2023-01-31T11:36:15.818Z,8.40
2023-01-31T11:38:43.790Z,16.05
2023-01-31T11:41:31.176Z,13.55
2023-01-31T11:44:17.265Z,19.38
2023-01-31T11:47:04.372Z,9.27
2023-01-31T11:49:34.452Z,14.80
2023-01-31T11:52:04.053Z,15.57
2023-01-31T11:54:33.295Z,12.32
2023-01-31T11:57:15.554Z,11.48
2023-01-31T11:59:44.679Z,15.57
2023-01-31T12:02:26.711Z,18.60
2023-01-31T12:07:55.574Z,15.43
2023-01-31T12:10:37.047Z,23.42
2023-01-31T12:13:18.859Z,16.20
2023-01-31T12:15:52.406Z,18.67
2023-01-31T12:18:37.631Z,14.15
2023-01-31T12:21:14.962Z,19.27
2023-01-31T12:26:34.100Z,16.55
2023-01-31T12:29:14.755Z,17.70
2023-01-31T12:31:53.930Z,15.93
2023-01-31T12:34:32.212Z,14.90
2023-01-31T12:37:23.063Z,16.70
2023-01-31T12:40:25.611Z,22.15
2023-01-31T12:42:57.975Z,7.50
2023-01-31T12:45:43.547Z,17.85
2023-01-31T12:48:21.744Z,15.48
2023-01-31T12:50:58.139Z,12.23
2023-01-31T12:56:52.840Z,16.48
2023-01-31T12:59:34.683Z,16.35
2023-01-31T13:02:13.665Z,16.60
2023-01-31T13:04:47.080Z,8.30
2023-01-31T13:07:17.755Z,2.90
2023-01-31T13:09:45.996Z,0.40
2023-01-31T13:12:35.826Z,0.00
2023-01-31T13:15:06.544Z,0.90
2023-01-31T13:17:36.698Z,0.00
2023-01-31T13:20:14.375Z,0.10
2023-01-31T13:22:46.621Z,0.00
2023-01-31T13:25:18.044Z,0.00
2023-01-31T13:27:59.529Z,0.33
2023-01-31T13:30:34.481Z,0.00
2023-01-31T13:33:04.636Z,0.00
2023-01-31T13:35:36.726Z,2.50
2023-01-31T13:38:08.906Z,0.28
2023-01-31T13:40:39.607Z,0.00
2023-01-31T13:43:13.256Z,0.00
2023-01-31T13:45:44.041Z,0.30
2023-01-31T13:48:21.110Z,0.20
2023-01-31T13:50:53.100Z,0.00
2023-01-31T13:53:23.443Z,0.10
2023-01-31T13:55:51.989Z,2.92
2023-01-31T13:58:22.639Z,0.40
2023-01-31T14:00:59.835Z,4.00
2023-01-31T14:03:27.534Z,0.30
2023-01-31T14:06:00.839Z,1.20
2023-01-31T14:08:30.379Z,0.40
2023-01-31T14:10:58.794Z,0.97
2023-01-31T14:13:40.063Z,0.00
2023-01-31T14:16:39.896Z,0.20
2023-01-31T14:19:32.190Z,0.10
2023-01-31T14:22:12.813Z,0.03
2023-01-31T14:25:01.843Z,0.30
2023-01-31T14:31:12.281Z,0.00
2023-01-31T14:33:46.652Z,0.70
2023-01-31T14:36:54.684Z,1.50
2023-01-31T14:39:57.071Z,1.92
2023-01-31T14:42:43.758Z,0.30
2023-01-31T14:45:21.817Z,0.55
2023-01-31T14:47:59.151Z,0.80
2023-01-31T14:50:49.217Z,0.00
2023-01-31T14:53:47.619Z,0.03
2023-01-31T14:56:27.692Z,0.20
2023-01-31T14:58:55.651Z,0.30
2023-01-31T15:01:23.970Z,0.17
2023-01-31T15:03:53.463Z,0.00
2023-01-31T15:06:24.720Z,0.93
2023-01-31T15:09:18.972Z,0.10
2023-01-31T15:11:48.772Z,0.17
2023-01-31T15:18:01.617Z,0.70
2023-01-31T15:23:35.067Z,0.07
2023-01-31T15:26:03.513Z,0.03
2023-01-31T15:34:17.959Z,0.33
2023-01-31T15:37:17.860Z,0.10
2023-01-31T15:39:50.126Z,0.40
2023-01-31T15:42:24.128Z,0.00
2023-01-31T15:47:36.453Z,0.43
2023-01-31T15:50:14.996Z,0.00
2023-01-31T15:52:58.422Z,0.10
2023-01-31T15:55:25.915Z,0.60
2023-01-31T15:57:57.455Z,0.40
2023-01-31T16:00:27.361Z,0.80
2023-01-31T16:03:01.392Z,0.10
2023-01-31T16:05:32.425Z,0.17
2023-01-31T16:08:01.197Z,0.80
2023-01-31T16:10:30.293Z,0.00
2023-01-31T16:12:59.298Z,0.00
2023-01-31T16:15:29.278Z,0.90
2023-01-31T16:18:02.052Z,0.15
2023-01-31T16:20:45.024Z,0.50
2023-01-31T16:23:37.444Z,0.70
2023-01-31T16:26:08.230Z,0.45
2023-01-31T16:28:40.814Z,0.20
2023-01-31T16:31:11.214Z,0.10
2023-01-31T16:33:40.890Z,0.00
2023-01-31T16:36:15.172Z,0.10
2023-01-31T16:38:55.889Z,0.00
2023-01-31T16:41:38.447Z,0.38
2023-01-31T16:44:06.218Z,0.30
2023-01-31T16:46:39.138Z,0.03
2023-01-31T16:49:18.986Z,0.00
2023-01-31T16:51:46.982Z,0.00
2023-01-31T16:54:32.222Z,0.10
2023-01-31T16:57:08.248Z,1.00
2023-01-31T16:59:40.893Z,0.00
2023-01-31T17:02:16.587Z,0.10
2023-01-31T17:04:46.605Z,1.40
2023-01-31T17:07:18.050Z,0.00
2023-01-31T17:09:46.656Z,0.60
2023-01-31T17:12:20.000Z,0.00
2023-01-31T17:14:48.084Z,0.20
2023-01-31T17:17:20.565Z,0.03
2023-01-31T17:19:50.763Z,0.10
2023-01-31T17:22:18.525Z,0.00
2023-01-31T17:24:46.721Z,0.00
2023-01-31T17:27:21.428Z,0.00
2023-01-31T17:29:49.280Z,3.70
2023-01-31T17:32:18.286Z,0.30
2023-01-31T17:34:48.146Z,0.40
2023-01-31T17:37:20.891Z,0.10
2023-01-31T17:39:51.110Z,0.00
2023-01-31T17:42:20.108Z,0.10
2023-01-31T17:44:47.938Z,0.10
2023-01-31T17:47:15.502Z,0.00
2023-01-31T17:49:45.096Z,0.40
2023-01-31T17:52:12.783Z,0.00
2023-01-31T17:54:41.887Z,0.28
2023-01-31T17:57:09.412Z,0.00
2023-01-31T17:59:36.900Z,0.00
2023-01-31T18:02:04.493Z,0.07
2023-01-31T18:04:31.989Z,0.50
2023-01-31T18:06:59.484Z,0.10
2023-01-31T18:09:26.986Z,0.50
2023-01-31T18:11:55.894Z,0.00
2023-01-31T18:14:23.441Z,0.00
2023-01-31T18:16:51.259Z,0.00
2023-01-31T18:19:18.748Z,0.00
2023-01-31T18:21:54.262Z,0.10
2023-01-31T18:24:22.696Z,0.00
2023-01-31T18:26:50.239Z,14.40
2023-01-31T18:29:20.803Z,1.40
2023-01-31T18:31:49.277Z,0.10
2023-01-31T18:34:17.091Z,0.00
2023-01-31T18:36:44.636Z,0.00
2023-01-31T18:39:12.103Z,1.10
2023-01-31T18:41:39.638Z,0.00
2023-01-31T18:44:07.164Z,0.38
2023-01-31T18:46:36.031Z,0.00
2023-01-31T18:49:03.677Z,0.30
2023-01-31T18:51:31.219Z,0.00
2023-01-31T18:53:58.773Z,0.10
2023-01-31T18:56:26.282Z,1.77
2023-01-31T18:58:54.434Z,0.00
2023-01-31T19:01:23.219Z,1.60
2023-01-31T19:03:53.687Z,0.00
2023-01-31T19:06:23.161Z,0.20
2023-01-31T19:08:52.298Z,14.30
2023-01-31T19:11:21.160Z,0.00
2023-01-31T19:13:48.942Z,4.60
2023-01-31T19:16:18.528Z,0.28
2023-01-31T19:18:46.042Z,0.00
2023-01-31T19:21:18.984Z,0.20
2023-01-31T19:24:08.189Z,1.10
2023-01-31T19:26:35.975Z,0.40
2023-01-31T19:29:04.538Z,0.20
2023-01-31T19:31:33.546Z,0.13
2023-01-31T19:34:02.787Z,0.57
2023-01-31T19:36:33.049Z,0.00
2023-01-31T19:39:01.851Z,0.10
2023-01-31T19:41:30.435Z,0.00
2023-01-31T19:43:59.263Z,0.00
2023-01-31T19:46:36.045Z,0.40
2023-01-31T19:49:05.320Z,0.00
2023-01-31T19:51:35.381Z,0.20
2023-01-31T19:54:03.705Z,0.00
2023-01-31T19:56:32.449Z,0.00
2023-01-31T19:59:00.261Z,0.00
2023-01-31T20:01:28.025Z,0.10
2023-01-31T20:03:55.841Z,0.00
2023-01-31T20:06:26.032Z,0.00
2023-01-31T20:08:57.273Z,0.20
2023-01-31T20:11:25.484Z,0.85
2023-01-31T20:13:53.967Z,0.00
2023-01-31T20:16:22.514Z,0.00
2023-01-31T20:18:51.150Z,0.00
2023-01-31T20:21:20.474Z,0.90
2023-01-31T20:23:48.471Z,0.10
2023-01-31T20:26:18.278Z,0.00
2023-01-31T20:28:45.960Z,0.30
2023-01-31T20:31:15.093Z,0.20
2023-01-31T20:33:42.848Z,0.00
2023-01-31T20:36:10.720Z,7.90
2023-01-31T20:38:38.638Z,0.40
2023-01-31T20:41:08.361Z,0.00
2023-01-31T20:43:38.150Z,0.10
2023-01-31T20:46:06.881Z,0.70
2023-01-31T20:48:34.955Z,0.10
2023-01-31T20:51:02.757Z,8.90
2023-01-31T20:53:30.570Z,0.10
2023-01-31T20:55:59.438Z,0.80
2023-01-31T20:58:27.872Z,0.00
2023-01-31T21:00:57.461Z,0.30
2023-01-31T21:03:29.170Z,0.10
2023-01-31T21:05:58.693Z,0.30
2023-01-31T21:08:26.363Z,0.00
2023-01-31T21:10:55.212Z,0.30
2023-01-31T21:13:23.714Z,0.80
2023-01-31T21:15:56.763Z,5.60
2023-01-31T21:18:27.049Z,11.88
2023-01-31T21:20:54.706Z,13.63
2023-01-31T21:23:22.240Z,21.20
2023-01-31T21:25:49.946Z,19.27
2023-01-31T21:28:17.511Z,16.17
2023-01-31T21:31:05.748Z,16.23
2023-01-31T21:33:34.866Z,21.70
2023-01-31T21:36:08.295Z,22.45
2023-01-31T21:38:35.823Z,26.38
2023-01-31T21:41:20.982Z,10.48
2023-01-31T21:46:30.280Z,14.18
2023-01-31T21:49:00.344Z,9.73
2023-01-31T21:51:28.648Z,25.75
2023-01-31T21:53:56.394Z,18.77
2023-01-31T21:56:25.869Z,21.55
2023-01-31T21:58:54.632Z,21.15
2023-01-31T22:01:27.419Z,17.45
2023-01-31T22:03:56.146Z,18.27
2023-01-31T22:06:29.551Z,18.95
2023-01-31T22:09:00.450Z,15.95
2023-01-31T22:11:32.733Z,16.30
2023-01-31T22:14:01.918Z,22.48
2023-01-31T22:16:29.747Z,24.45
2023-01-31T22:18:57.328Z,26.77
2023-01-31T22:21:27.606Z,14.50
2023-01-31T22:24:15.369Z,25.45
2023-01-31T22:26:44.664Z,13.75
2023-01-31T22:29:14.207Z,26.83
2023-01-31T22:31:41.859Z,18.88
2023-01-31T22:34:11.724Z,10.32
2023-01-31T22:36:42.115Z,22.70
2023-01-31T22:39:12.561Z,17.33
2023-01-31T22:44:48.873Z,16.55
2023-01-31T22:47:16.417Z,19.98
2023-01-31T22:49:43.908Z,22.40
2023-01-31T22:52:13.077Z,23.05
2023-01-31T22:54:41.833Z,16.17
2023-01-31T22:57:09.524Z,23.10
2023-01-31T22:59:37.104Z,15.13
2023-01-31T23:02:04.639Z,23.73
2023-01-31T23:04:32.188Z,22.65
2023-01-31T23:06:59.691Z,16.83
2023-01-31T23:09:28.600Z,17.35
2023-01-31T23:11:56.120Z,17.45
2023-01-31T23:14:23.599Z,22.15
2023-01-31T23:17:08.906Z,14.57
2023-01-31T23:19:37.766Z,21.55
2023-01-31T23:22:05.254Z,12.68
2023-01-31T23:24:35.876Z,20.02
2023-01-31T23:27:03.496Z,18.98
2023-01-31T23:29:31.049Z,21.00
2023-01-31T23:31:58.591Z,15.07
2023-01-31T23:34:26.150Z,21.00
2023-01-31T23:36:53.638Z,16.80
2023-01-31T23:39:21.166Z,18.15
2023-01-31T23:41:49.972Z,15.40
2023-01-31T23:44:17.439Z,14.77
2023-01-31T23:46:44.903Z,21.45
2023-01-31T23:49:12.671Z,17.77
2023-01-31T23:51:40.348Z,24.75
2023-01-31T23:54:08.086Z,12.67
2023-01-31T23:56:35.569Z,13.68
2023-01-31T23:59:04.770Z,25.67
